Time,TemperatureF,DewpointF,PressureIn,WindDirection,WindDirectionDegrees,WindSpeedMPH,WindSpeedGustMPH,Humidity,HourlyPrecipIn,Conditions,Clouds,dailyrainin,SolarRadiationWatts/m^2,SoftwareType,DateUTC
2013-09-17 00:00:00,81.2,77.3,29.93,NE,45,0.0,4.0,88,0.00,,,0.00,0.00,VWS V14.00,2013-09-17 05:00:00,
2013-09-17 00:15:00,81.2,77.3,29.93,NE,45,1.0,5.0,88,0.00,,,0.00,0.00,VWS V14.00,2013-09-17 05:15:00,
2013-09-17 00:30:00,81.0,77.1,29.93,NNE,22,1.0,4.0,88,0.00,,,0.00,0.00,VWS V14.00,2013-09-17 05:30:00,
2013-09-17 00:45:00,80.9,77.0,29.93,NE,45,2.0,7.0,88,0.00,,,0.00,0.00,VWS V14.00,2013-09-17 05:45:00,
2013-09-17 01:00:00,80.9,77.0,29.92,NE,45,2.0,7.0,88,0.00,,,0.00,0.00,VWS V14.00,2013-09-17 06:00:00,
2013-09-17 01:15:00,80.6,77.1,29.93,ENE,68,1.0,5.0,89,0.00,,,0.00,0.00,VWS V14.00,2013-09-17 06:15:00,
2013-09-17 01:30:00,80.4,76.9,29.93,NE,45,1.0,6.0,89,0.00,,,0.00,0.00,VWS V14.00,2013-09-17 06:30:00,
2013-09-17 01:45:00,80.2,76.7,29.92,NNE,22,1.0,3.0,89,0.00,,,0.00,0.00,VWS V14.00,2013-09-17 06:45:00,
2013-09-17 02:00:00,80.1,76.9,29.92,NE,45,1.0,4.0,90,0.00,,,0.00,0.00,VWS V14.00,2013-09-17 07:00:00,
2013-09-17 02:15:00,79.9,76.7,29.92,NE,45,0.0,3.0,90,0.00,,,0.00,0.00,VWS V14.00,2013-09-17 07:15:00,
2013-09-17 02:30:00,79.6,76.4,29.92,NE,45,1.0,4.0,90,0.00,,,0.00,0.00,VWS V14.00,2013-09-17 07:30:00,
2013-09-17 02:45:00,79.6,76.8,29.91,NE,45,0.0,4.0,91,0.00,,,0.00,0.00,VWS V14.00,2013-09-17 07:45:00,
2013-09-17 03:00:00,79.8,76.9,29.91,NE,45,1.0,5.0,91,0.00,,,0.00,0.00,VWS V14.00,2013-09-17 08:00:00,
2013-09-17 03:15:00,79.9,77.0,29.91,NE,45,1.0,4.0,91,0.00,,,0.00,0.00,VWS V14.00,2013-09-17 08:15:00,
2013-09-17 03:30:00,79.7,76.8,29.90,NE,45,1.0,7.0,91,0.00,,,0.00,0.00,VWS V14.00,2013-09-17 08:30:00,
2013-09-17 03:45:00,79.4,76.6,29.90,NE,45,1.0,5.0,91,0.00,,,0.00,0.00,VWS V14.00,2013-09-17 08:45:00,
2013-09-17 04:00:00,79.8,76.9,29.90,NNE,22,2.0,5.0,91,0.00,,,0.00,0.00,VWS V14.00,2013-09-17 09:00:00,
2013-09-17 04:15:00,79.6,76.8,29.90,NE,45,1.0,4.0,91,0.00,,,0.00,0.00,VWS V14.00,2013-09-17 09:15:00,
2013-09-17 04:30:00,79.6,76.8,29.89,NNE,22,0.0,5.0,91,0.00,,,0.00,0.00,VWS V14.00,2013-09-17 09:30:00,
2013-09-17 04:45:00,79.5,76.7,29.89,NE,45,1.0,4.0,91,0.00,,,0.00,0.00,VWS V14.00,2013-09-17 09:45:00,
2013-09-17 05:00:00,78.7,75.9,29.89,NE,45,1.0,4.0,91,0.00,,,0.00,0.00,VWS V14.00,2013-09-17 10:00:00,
2013-09-17 05:15:00,78.6,76.1,29.89,NNE,22,1.0,5.0,92,0.00,,,0.00,0.00,VWS V14.00,2013-09-17 10:15:00,
2013-09-17 05:32:00,78.7,76.2,29.89,NE,45,2.0,5.0,92,0.00,,,0.00,0.00,VWS V14.00,2013-09-17 10:32:00,
2013-09-17 05:45:00,78.7,76.2,29.89,NNE,13,2.0,9.0,92,0.00,,,0.00,0.00,VWS V14.00,2013-09-17 10:45:00,
2013-09-17 06:00:00,78.5,76.0,29.90,North,0,3.0,9.0,92,0.00,,,0.00,0.00,VWS V14.00,2013-09-17 11:00:00,
2013-09-17 06:15:00,78.4,75.9,29.90,NNE,22,2.0,6.0,92,0.00,,,0.00,0.00,VWS V14.00,2013-09-17 11:15:00,
2013-09-17 06:30:00,78.4,75.9,29.91,NE,45,2.0,5.0,92,0.00,,,0.00,0.00,VWS V14.00,2013-09-17 11:30:00,
2013-09-17 06:45:00,78.5,76.0,29.91,North,0,2.0,6.0,92,0.00,,,0.00,0.00,VWS V14.00,2013-09-17 11:45:00,
2013-09-17 07:00:00,78.8,76.3,29.91,North,0,2.0,6.0,92,0.00,,,0.01,0.00,VWS V14.00,2013-09-17 12:00:00,
2013-09-17 07:15:00,78.8,76.3,29.91,NNE,22,2.0,6.0,92,0.00,,,0.01,4.00,VWS V14.00,2013-09-17 12:15:00,
2013-09-17 07:30:00,78.7,76.2,29.91,NNE,22,2.0,5.0,92,0.00,,,0.01,21.00,VWS V14.00,2013-09-17 12:30:00,
2013-09-17 07:45:00,78.7,76.5,29.92,NNE,22,2.0,6.0,93,0.00,,,0.01,43.00,VWS V14.00,2013-09-17 12:45:00,
2013-09-17 08:00:00,78.9,76.7,29.92,NNE,22,2.0,7.0,93,0.00,,,0.01,66.00,VWS V14.00,2013-09-17 13:00:00,
2013-09-17 08:15:00,79.0,76.5,29.93,NNE,22,2.0,6.0,92,0.00,,,0.01,92.00,VWS V14.00,2013-09-17 13:15:00,
2013-09-17 08:30:00,80.0,77.5,29.93,NE,45,3.0,7.0,92,0.00,,,0.01,200.00,VWS V14.00,2013-09-17 13:30:00,
2013-09-17 08:45:00,80.6,77.7,29.94,NE,45,3.0,6.0,91,0.00,,,0.01,192.00,VWS V14.00,2013-09-17 13:45:00,
2013-09-17 09:00:00,81.3,78.1,29.94,NE,45,2.0,6.0,90,0.00,,,0.01,208.00,VWS V14.00,2013-09-17 14:00:00,
2013-09-17 09:15:00,82.1,78.2,29.95,NE,45,3.0,6.0,88,0.00,,,0.01,294.00,VWS V14.00,2013-09-17 14:15:00,
2013-09-17 09:30:00,83.2,78.9,29.95,ENE,68,2.0,6.0,87,0.00,,,0.01,362.00,VWS V14.00,2013-09-17 14:30:00,
2013-09-17 09:45:00,84.5,79.5,29.95,NE,45,3.0,6.0,85,0.00,,,0.01,457.00,VWS V14.00,2013-09-17 14:45:00,
2013-09-17 10:00:00,85.3,79.6,29.95,NE,45,3.0,7.0,83,0.00,,,0.02,448.00,VWS V14.00,2013-09-17 15:00:00,
2013-09-17 10:15:00,85.5,79.0,29.95,East,90,3.0,10.0,81,0.00,,,0.02,340.00,VWS V14.00,2013-09-17 15:15:00,
2013-09-17 10:30:00,85.5,79.0,29.95,East,90,3.0,10.0,81,0.00,,,0.02,342.00,VWS V14.00,2013-09-17 15:30:00,
2013-09-17 10:45:00,85.8,78.9,29.96,East,90,3.0,6.0,80,0.00,,,0.02,337.00,VWS V14.00,2013-09-17 15:45:00,
2013-09-17 11:00:00,86.3,78.6,29.96,ESE,112,3.0,7.0,78,0.00,,,0.02,439.00,VWS V14.00,2013-09-17 16:00:00,
2013-09-17 11:15:00,86.3,78.6,29.96,East,90,3.0,11.0,78,0.00,,,0.02,364.00,VWS V14.00,2013-09-17 16:15:00,
2013-09-17 11:30:00,86.8,78.7,29.96,East,90,4.0,10.0,77,0.00,,,0.02,547.00,VWS V14.00,2013-09-17 16:30:00,
2013-09-17 11:45:00,88.1,79.2,29.96,East,90,4.0,13.0,75,0.00,,,0.02,787.00,VWS V14.00,2013-09-17 16:45:00,
2013-09-17 12:00:00,88.3,79.0,29.96,East,90,4.0,12.0,74,0.00,,,0.02,618.00,VWS V14.00,2013-09-17 17:00:00,
2013-09-17 12:15:00,87.8,78.1,29.95,ESE,112,4.0,13.0,73,0.00,,,0.02,581.00,VWS V14.00,2013-09-17 17:15:00,
2013-09-17 12:30:00,87.0,78.1,29.95,East,90,5.0,13.0,75,0.00,,,0.02,428.00,VWS V14.00,2013-09-17 17:30:00,
2013-09-17 12:45:00,86.9,78.0,29.94,East,90,4.0,11.0,75,0.00,,,0.02,369.00,VWS V14.00,2013-09-17 17:45:00,
2013-09-17 13:04:00,86.5,78.0,29.94,ESE,112,5.0,13.0,76,0.00,,,0.02,381.00,VWS V14.00,2013-09-17 18:04:00,
2013-09-17 13:15:00,86.3,77.0,29.93,ENE,72,3.0,11.0,74,0.00,,,0.02,374.00,VWS V14.00,2013-09-17 18:15:00,
2013-09-17 13:30:00,86.6,77.3,29.92,ESE,112,5.0,11.0,74,0.00,,,0.02,381.00,VWS V14.00,2013-09-17 18:30:00,
2013-09-17 13:45:00,86.7,77.8,29.92,ESE,112,5.0,9.0,75,0.00,,,0.02,398.00,VWS V14.00,2013-09-17 18:45:00,
2013-09-17 14:00:00,86.7,77.8,29.92,East,90,4.0,11.0,75,0.00,,,0.02,415.00,VWS V14.00,2013-09-17 19:00:00,
2013-09-17 14:15:00,87.0,78.9,29.91,East,90,4.0,11.0,77,0.00,,,0.02,469.00,VWS V14.00,2013-09-17 19:15:00,
2013-09-17 14:30:00,87.0,78.1,29.90,ESE,112,5.0,13.0,75,0.00,,,0.02,539.00,VWS V14.00,2013-09-17 19:30:00,
2013-09-17 14:45:00,88.0,77.8,29.90,East,90,5.0,13.0,72,0.00,,,0.02,838.00,VWS V14.00,2013-09-17 19:45:00,
2013-09-17 15:00:00,87.7,77.6,29.90,East,90,6.0,14.0,72,0.00,,,0.02,582.00,VWS V14.00,2013-09-17 20:00:00,
2013-09-17 15:15:00,87.7,78.4,29.89,ESE,112,6.0,13.0,74,0.00,,,0.02,715.00,VWS V14.00,2013-09-17 20:15:00,
2013-09-17 15:30:00,89.1,79.3,29.88,East,90,5.0,12.0,73,0.00,,,0.02,836.00,VWS V14.00,2013-09-17 20:30:00,
2013-09-17 15:45:00,87.9,77.8,29.88,East,90,6.0,12.0,72,0.00,,,0.02,569.00,VWS V14.00,2013-09-17 20:45:00,
2013-09-17 16:00:00,87.5,76.5,29.87,East,90,5.0,14.0,70,0.00,,,0.02,493.00,VWS V14.00,2013-09-17 21:00:00,
2013-09-17 16:15:00,87.2,77.5,29.87,ESE,112,6.0,13.0,73,0.00,,,0.02,388.00,VWS V14.00,2013-09-17 21:15:00,
2013-09-17 16:30:00,87.2,77.9,29.87,ESE,112,6.0,13.0,74,0.00,,,0.02,494.00,VWS V14.00,2013-09-17 21:30:00,
2013-09-17 16:45:00,86.6,77.7,29.87,ESE,112,5.0,12.0,75,0.00,,,0.02,303.00,VWS V14.00,2013-09-17 21:45:00,
2013-09-17 17:00:00,86.5,77.6,29.87,East,90,5.0,13.0,75,0.00,,,0.02,316.00,VWS V14.00,2013-09-17 22:00:00,
2013-09-17 17:15:00,86.6,77.7,29.86,East,90,5.0,12.0,75,0.00,,,0.02,302.00,VWS V14.00,2013-09-17 22:15:00,
2013-09-17 17:30:00,86.1,77.7,29.86,ESE,112,4.0,11.0,76,0.00,,,0.02,228.00,VWS V14.00,2013-09-17 22:30:00,
2013-09-17 17:45:00,85.5,77.5,29.86,East,90,5.0,12.0,77,0.00,,,0.02,148.00,VWS V14.00,2013-09-17 22:45:00,
2013-09-17 18:00:00,85.1,77.9,29.86,East,90,5.0,13.0,79,0.00,,,0.02,128.00,VWS V14.00,2013-09-17 23:00:00,
2013-09-17 18:15:00,85.0,77.8,29.86,ESE,112,4.0,11.0,79,0.00,,,0.02,106.00,VWS V14.00,2013-09-17 23:15:00,
2013-09-17 18:30:00,84.6,77.4,29.86,East,90,4.0,11.0,79,0.00,,,0.02,75.00,VWS V14.00,2013-09-17 23:30:00,
2013-09-17 18:45:00,84.3,77.5,29.87,East,90,4.0,11.0,80,0.00,,,0.02,55.00,VWS V14.00,2013-09-17 23:45:00,
2013-09-17 19:00:00,83.9,77.4,29.87,East,90,4.0,10.0,81,0.00,,,0.02,40.00,VWS V14.00,2013-09-18 00:00:00,
2013-09-17 19:15:00,83.5,77.1,29.87,ESE,112,3.0,7.0,81,0.00,,,0.02,15.00,VWS V14.00,2013-09-18 00:15:00,
2013-09-17 19:30:00,83.2,77.1,29.87,ESE,112,4.0,9.0,82,0.00,,,0.02,1.00,VWS V14.00,2013-09-18 00:30:00,
2013-09-17 19:45:00,82.8,76.8,29.87,ESE,112,3.0,7.0,82,0.00,,,0.02,0.00,VWS V14.00,2013-09-18 00:45:00,
2013-09-17 20:00:00,82.6,76.9,29.88,ENE,68,2.0,7.0,83,0.00,,,0.02,0.00,VWS V14.00,2013-09-18 01:00:00,
2013-09-17 20:15:00,82.5,77.2,29.88,East,90,2.0,6.0,84,0.00,,,0.02,0.00,VWS V14.00,2013-09-18 01:15:00,
2013-09-17 20:45:00,82.2,77.2,29.89,East,90,1.0,4.0,85,0.00,,,0.02,0.00,VWS V14.00,2013-09-18 01:45:00,
2013-09-17 21:00:00,82.0,77.4,29.89,East,90,1.0,4.0,86,0.00,,,0.02,0.00,VWS V14.00,2013-09-18 02:00:00,
2013-09-17 21:15:00,81.7,77.1,29.89,East,90,1.0,4.0,86,0.00,,,0.02,0.00,VWS V14.00,2013-09-18 02:15:00,
2013-09-17 21:30:00,81.6,77.0,29.90,East,90,1.0,4.0,86,0.00,,,0.02,0.00,VWS V14.00,2013-09-18 02:30:00,
2013-09-17 21:45:00,81.5,76.9,29.90,East,90,1.0,4.0,86,0.00,,,0.02,0.00,VWS V14.00,2013-09-18 02:45:00,
2013-09-17 22:00:00,81.5,77.3,29.91,East,90,1.0,4.0,87,0.00,,,0.02,0.00,VWS V14.00,2013-09-18 03:00:00,
2013-09-17 22:15:00,81.4,77.2,29.91,East,90,1.0,3.0,87,0.00,,,0.02,0.00,VWS V14.00,2013-09-18 03:15:00,
2013-09-17 22:30:00,81.2,77.3,29.91,East,90,1.0,3.0,88,0.00,,,0.02,0.00,VWS V14.00,2013-09-18 03:30:00,
2013-09-17 22:45:00,81.1,77.2,29.91,East,90,1.0,3.0,88,0.00,,,0.02,0.00,VWS V14.00,2013-09-18 03:45:00,
2013-09-17 23:00:00,81.0,77.5,29.91,East,90,1.0,4.0,89,0.00,,,0.02,0.00,VWS V14.00,2013-09-18 04:00:00,
2013-09-17 23:15:00,80.9,77.4,29.91,East,90,1.0,3.0,89,0.00,,,0.02,0.00,VWS V14.00,2013-09-18 04:15:00,
2013-09-17 23:30:00,80.6,77.1,29.92,East,90,0.0,3.0,89,0.00,,,0.02,0.00,VWS V14.00,2013-09-18 04:30:00,
2013-09-17 23:45:00,80.2,76.7,29.92,East,90,0.0,1.0,89,0.00,,,0.02,0.00,VWS V14.00,2013-09-18 04:45:00,